sensor_id;sensor_type;location;lat;lon;timestamp;pressure;altitude;pressure_sealevel;temperature;humidity
71970;BME280;59838;52.152;5.436;2023-05-19T00:00:57;102930.75;;;6.91;95.04
71970;BME280;59838;52.152;5.436;2023-05-19T00:03:26;102937.06;;;6.87;95.48
71970;BME280;59838;52.152;5.436;2023-05-19T00:05:52;102932.22;;;6.83;95.99
71970;BME280;59838;52.152;5.436;2023-05-19T00:08:21;102934.00;;;6.82;97.10
71970;BME280;59838;52.152;5.436;2023-05-19T00:10:48;102923.56;;;6.84;96.74
71970;BME280;59838;52.152;5.436;2023-05-19T00:13:15;102929.44;;;6.86;97.38
71970;BME280;59838;52.152;5.436;2023-05-19T00:20:12;102925.47;;;6.93;96.55
71970;BME280;59838;52.152;5.436;2023-05-19T00:22:39;102920.00;;;6.85;96.66
71970;BME280;59838;52.152;5.436;2023-05-19T00:25:06;102909.88;;;6.82;97.21
71970;BME280;59838;52.152;5.436;2023-05-19T00:27:32;102911.25;;;6.74;97.79
71970;BME280;59838;52.152;5.436;2023-05-19T00:29:59;102910.19;;;6.77;98.20
71970;BME280;59838;52.152;5.436;2023-05-19T00:32:26;102913.22;;;6.84;98.67
71970;BME280;59838;52.152;5.436;2023-05-19T00:34:52;102911.44;;;6.84;98.09
71970;BME280;59838;52.152;5.436;2023-05-19T00:37:19;102912.47;;;6.82;97.99
71970;BME280;59838;52.152;5.436;2023-05-19T00:39:45;102916.00;;;6.81;98.30
71970;BME280;59838;52.152;5.436;2023-05-19T00:42:12;102911.88;;;6.78;99.10
71970;BME280;59838;52.152;5.436;2023-05-19T00:44:40;102905.78;;;6.79;98.41
71970;BME280;59838;52.152;5.436;2023-05-19T00:47:07;102911.06;;;6.77;98.67
71970;BME280;59838;52.152;5.436;2023-05-19T00:49:34;102907.84;;;6.74;98.65
71970;BME280;59838;52.152;5.436;2023-05-19T00:52:01;102907.97;;;6.72;98.64
71970;BME280;59838;52.152;5.436;2023-05-19T00:54:28;102909.81;;;6.70;98.90
71970;BME280;59838;52.152;5.436;2023-05-19T00:56:54;102906.50;;;6.68;98.84
71970;BME280;59838;52.152;5.436;2023-05-19T00:59:23;102899.91;;;6.64;99.15
71970;BME280;59838;52.152;5.436;2023-05-19T01:01:50;102906.81;;;6.64;98.73
71970;BME280;59838;52.152;5.436;2023-05-19T01:04:20;102909.63;;;6.61;98.88
71970;BME280;59838;52.152;5.436;2023-05-19T01:06:47;102911.38;;;6.60;99.21
71970;BME280;59838;52.152;5.436;2023-05-19T01:09:21;102906.63;;;6.54;99.00
71970;BME280;59838;52.152;5.436;2023-05-19T01:11:49;102912.19;;;6.48;99.00
71970;BME280;59838;52.152;5.436;2023-05-19T01:14:16;102912.31;;;6.46;99.60
71970;BME280;59838;52.152;5.436;2023-05-19T01:16:49;102914.28;;;6.43;99.82
71970;BME280;59838;52.152;5.436;2023-05-19T01:25:24;102916.44;;;6.36;100.00
71970;BME280;59838;52.152;5.436;2023-05-19T01:30:57;102901.06;;;6.34;100.00
71970;BME280;59838;52.152;5.436;2023-05-19T01:33:26;102901.16;;;6.33;100.00
71970;BME280;59838;52.152;5.436;2023-05-19T01:35:54;102890.13;;;6.31;100.00
71970;BME280;59838;52.152;5.436;2023-05-19T01:38:22;102887.53;;;6.31;100.00
71970;BME280;59838;52.152;5.436;2023-05-19T01:40:51;102891.88;;;6.30;100.00
71970;BME280;59838;52.152;5.436;2023-05-19T01:43:21;102888.66;;;6.27;100.00
71970;BME280;59838;52.152;5.436;2023-05-19T01:45:49;102890.63;;;6.23;100.00
71970;BME280;59838;52.152;5.436;2023-05-19T01:48:17;102889.91;;;6.21;100.00
71970;BME280;59838;52.152;5.436;2023-05-19T01:50:44;102887.34;;;6.21;100.00
71970;BME280;59838;52.152;5.436;2023-05-19T01:53:11;102891.78;;;6.19;100.00
71970;BME280;59838;52.152;5.436;2023-05-19T01:55:46;102900.44;;;6.18;100.00
71970;BME280;59838;52.152;5.436;2023-05-19T01:58:27;102884.34;;;6.14;100.00
71970;BME280;59838;52.152;5.436;2023-05-19T02:03:53;102879.38;;;6.11;100.00
71970;BME280;59838;52.152;5.436;2023-05-19T02:06:37;102876.09;;;6.09;100.00
71970;BME280;59838;52.152;5.436;2023-05-19T02:09:15;102886.41;;;6.09;100.00
71970;BME280;59838;52.152;5.436;2023-05-19T02:11:54;102875.53;;;6.04;100.00
71970;BME280;59838;52.152;5.436;2023-05-19T02:14:29;102886.19;;;5.99;100.00
71970;BME280;59838;52.152;5.436;2023-05-19T02:16:58;102883.25;;;5.91;100.00
71970;BME280;59838;52.152;5.436;2023-05-19T02:19:28;102881.69;;;5.89;100.00
71970;BME280;59838;52.152;5.436;2023-05-19T02:21:57;102883.56;;;5.86;100.00
71970;BME280;59838;52.152;5.436;2023-05-19T02:24:24;102882.53;;;5.89;100.00
71970;BME280;59838;52.152;5.436;2023-05-19T02:26:52;102880.03;;;5.88;100.00
71970;BME280;59838;52.152;5.436;2023-05-19T02:29:19;102871.69;;;5.84;100.00
71970;BME280;59838;52.152;5.436;2023-05-19T02:31:46;102876.22;;;5.80;100.00
71970;BME280;59838;52.152;5.436;2023-05-19T02:34:13;102868.69;;;5.77;100.00
71970;BME280;59838;52.152;5.436;2023-05-19T02:36:41;102872.06;;;5.78;100.00
71970;BME280;59838;52.152;5.436;2023-05-19T02:39:10;102869.59;;;5.76;100.00
71970;BME280;59838;52.152;5.436;2023-05-19T02:41:37;102871.66;;;5.71;100.00
71970;BME280;59838;52.152;5.436;2023-05-19T02:44:04;102859.91;;;5.67;100.00
71970;BME280;59838;52.152;5.436;2023-05-19T02:46:31;102861.00;;;5.63;100.00
71970;BME280;59838;52.152;5.436;2023-05-19T02:48:58;102861.31;;;5.58;100.00
71970;BME280;59838;52.152;5.436;2023-05-19T02:51:24;102859.97;;;5.53;100.00
71970;BME280;59838;52.152;5.436;2023-05-19T02:53:51;102864.38;;;5.50;100.00
71970;BME280;59838;52.152;5.436;2023-05-19T02:56:17;102856.75;;;5.49;100.00
71970;BME280;59838;52.152;5.436;2023-05-19T02:58:44;102853.34;;;5.48;100.00
71970;BME280;59838;52.152;5.436;2023-05-19T03:01:10;102862.03;;;5.47;100.00
71970;BME280;59838;52.152;5.436;2023-05-19T03:03:37;102850.88;;;5.47;100.00
71970;BME280;59838;52.152;5.436;2023-05-19T03:06:04;102849.22;;;5.46;100.00
71970;BME280;59838;52.152;5.436;2023-05-19T03:08:34;102847.66;;;5.43;100.00
71970;BME280;59838;52.152;5.436;2023-05-19T03:11:02;102849.44;;;5.43;100.00
71970;BME280;59838;52.152;5.436;2023-05-19T03:13:28;102839.03;;;5.44;100.00
71970;BME280;59838;52.152;5.436;2023-05-19T03:15:55;102841.78;;;5.41;100.00
71970;BME280;59838;52.152;5.436;2023-05-19T03:18:25;102849.63;;;5.40;100.00
71970;BME280;59838;52.152;5.436;2023-05-19T03:20:51;102850.91;;;5.32;100.00
71970;BME280;59838;52.152;5.436;2023-05-19T03:23:20;102847.72;;;5.29;100.00
71970;BME280;59838;52.152;5.436;2023-05-19T03:25:46;102852.06;;;5.28;100.00
71970;BME280;59838;52.152;5.436;2023-05-19T03:28:13;102852.06;;;5.28;100.00
71970;BME280;59838;52.152;5.436;2023-05-19T03:30:40;102845.25;;;5.27;100.00
71970;BME280;59838;52.152;5.436;2023-05-19T03:33:06;102845.44;;;5.24;100.00
71970;BME280;59838;52.152;5.436;2023-05-19T03:35:33;102847.19;;;5.24;100.00
71970;BME280;59838;52.152;5.436;2023-05-19T03:37:59;102844.72;;;5.22;100.00
71970;BME280;59838;52.152;5.436;2023-05-19T03:40:26;102857.59;;;5.22;100.00
71970;BME280;59838;52.152;5.436;2023-05-19T03:42:53;102841.41;;;5.20;100.00
71970;BME280;59838;52.152;5.436;2023-05-19T03:45:22;102833.69;;;5.20;100.00
71970;BME280;59838;52.152;5.436;2023-05-19T03:47:48;102842.03;;;5.24;100.00
71970;BME280;59838;52.152;5.436;2023-05-19T03:50:15;102843.38;;;5.29;100.00
71970;BME280;59838;52.152;5.436;2023-05-19T03:52:41;102841.47;;;5.33;100.00
71970;BME280;59838;52.152;5.436;2023-05-19T03:55:11;102843.00;;;5.36;100.00
71970;BME280;59838;52.152;5.436;2023-05-19T03:57:40;102848.25;;;5.34;100.00
71970;BME280;59838;52.152;5.436;2023-05-19T04:00:07;102842.00;;;5.38;100.00
71970;BME280;59838;52.152;5.436;2023-05-19T04:02:34;102851.25;;;5.41;100.00
71970;BME280;59838;52.152;5.436;2023-05-19T04:05:00;102847.56;;;5.45;100.00
71970;BME280;59838;52.152;5.436;2023-05-19T04:07:30;102850.56;;;5.52;100.00
71970;BME280;59838;52.152;5.436;2023-05-19T04:09:56;102849.22;;;5.59;100.00
71970;BME280;59838;52.152;5.436;2023-05-19T04:12:23;102848.75;;;5.66;100.00
71970;BME280;59838;52.152;5.436;2023-05-19T04:14:49;102852.38;;;5.77;100.00
71970;BME280;59838;52.152;5.436;2023-05-19T04:17:16;102843.34;;;6.10;100.00
71970;BME280;59838;52.152;5.436;2023-05-19T04:19:42;102840.03;;;6.83;100.00
71970;BME280;59838;52.152;5.436;2023-05-19T04:22:09;102841.97;;;7.17;100.00
71970;BME280;59838;52.152;5.436;2023-05-19T04:24:35;102839.22;;;7.66;100.00
71970;BME280;59838;52.152;5.436;2023-05-19T04:27:02;102842.94;;;8.09;100.00
71970;BME280;59838;52.152;5.436;2023-05-19T04:29:29;102841.66;;;8.60;99.11
71970;BME280;59838;52.152;5.436;2023-05-19T04:31:57;102845.38;;;9.55;94.86
71970;BME280;59838;52.152;5.436;2023-05-19T04:34:24;102842.63;;;10.29;90.76
71970;BME280;59838;52.152;5.436;2023-05-19T04:36:50;102839.09;;;10.81;86.61
71970;BME280;59838;52.152;5.436;2023-05-19T04:39:18;102831.72;;;11.15;83.89
71970;BME280;59838;52.152;5.436;2023-05-19T04:41:46;102833.09;;;11.09;81.99
71970;BME280;59838;52.152;5.436;2023-05-19T04:44:13;102841.34;;;9.93;83.18
71970;BME280;59838;52.152;5.436;2023-05-19T04:46:43;102842.53;;;9.58;86.54
71970;BME280;59838;52.152;5.436;2023-05-19T04:49:10;102848.25;;;10.03;85.61
71970;BME280;59838;52.152;5.436;2023-05-19T04:51:40;102851.41;;;10.78;84.23
71970;BME280;59838;52.152;5.436;2023-05-19T04:54:07;102835.59;;;11.87;80.70
71970;BME280;59838;52.152;5.436;2023-05-19T04:56:35;102837.84;;;12.48;77.75
71970;BME280;59838;52.152;5.436;2023-05-19T04:59:01;102839.31;;;12.96;75.14
71970;BME280;59838;52.152;5.436;2023-05-19T05:01:28;102836.72;;;13.14;73.56
71970;BME280;59838;52.152;5.436;2023-05-19T05:03:56;102842.09;;;13.83;71.23
71970;BME280;59838;52.152;5.436;2023-05-19T05:06:24;102835.22;;;14.08;69.38
71970;BME280;59838;52.152;5.436;2023-05-19T05:08:51;102846.34;;;14.10;68.81
71970;BME280;59838;52.152;5.436;2023-05-19T05:11:18;102843.91;;;13.56;69.43
71970;BME280;59838;52.152;5.436;2023-05-19T05:13:45;102847.22;;;13.04;71.64
71970;BME280;59838;52.152;5.436;2023-05-19T05:16:12;102850.34;;;12.72;72.38
71970;BME280;59838;52.152;5.436;2023-05-19T05:18:39;102848.69;;;12.15;75.00
71970;BME280;59838;52.152;5.436;2023-05-19T05:21:10;102853.41;;;12.39;75.13
71970;BME280;59838;52.152;5.436;2023-05-19T05:23:36;102848.09;;;13.31;73.33
71970;BME280;59838;52.152;5.436;2023-05-19T05:26:08;102839.00;;;13.79;70.34
71970;BME280;59838;52.152;5.436;2023-05-19T05:28:36;102847.03;;;13.86;70.37
71970;BME280;59838;52.152;5.436;2023-05-19T05:31:02;102847.84;;;14.21;68.33
71970;BME280;59838;52.152;5.436;2023-05-19T05:33:29;102848.38;;;14.33;67.92
71970;BME280;59838;52.152;5.436;2023-05-19T05:35:55;102854.22;;;14.18;68.25
71970;BME280;59838;52.152;5.436;2023-05-19T05:38:22;102844.00;;;14.92;67.39
71970;BME280;59838;52.152;5.436;2023-05-19T05:40:49;102844.16;;;14.91;65.07
71970;BME280;59838;52.152;5.436;2023-05-19T05:43:15;102848.97;;;13.58;68.60
71970;BME280;59838;52.152;5.436;2023-05-19T05:45:42;102848.19;;;13.21;71.30
71970;BME280;59838;52.152;5.436;2023-05-19T05:48:09;102847.06;;;13.94;69.64
71970;BME280;59838;52.152;5.436;2023-05-19T05:50:36;102854.13;;;14.87;67.48
71970;BME280;59838;52.152;5.436;2023-05-19T05:53:02;102841.53;;;15.24;64.71
71970;BME280;59838;52.152;5.436;2023-05-19T05:55:31;102850.06;;;15.34;64.48
71970;BME280;59838;52.152;5.436;2023-05-19T05:57:58;102848.78;;;16.11;63.24
71970;BME280;59838;52.152;5.436;2023-05-19T06:00:27;102844.72;;;16.39;61.85
71970;BME280;59838;52.152;5.436;2023-05-19T06:02:54;102843.88;;;16.70;61.60
71970;BME280;59838;52.152;5.436;2023-05-19T06:05:20;102836.56;;;16.57;60.38
71970;BME280;59838;52.152;5.436;2023-05-19T06:07:47;102848.84;;;15.86;62.93
71970;BME280;59838;52.152;5.436;2023-05-19T06:10:13;102843.97;;;15.33;63.42
71970;BME280;59838;52.152;5.436;2023-05-19T06:12:40;102845.94;;;15.48;65.13
71970;BME280;59838;52.152;5.436;2023-05-19T06:15:08;102843.38;;;16.75;62.49
71970;BME280;59838;52.152;5.436;2023-05-19T06:17:35;102840.63;;;17.14;58.41
71970;BME280;59838;52.152;5.436;2023-05-19T06:20:02;102846.16;;;16.42;59.40
71970;BME280;59838;52.152;5.436;2023-05-19T06:22:31;102848.16;;;16.40;61.20
71970;BME280;59838;52.152;5.436;2023-05-19T06:24:57;102843.59;;;16.65;59.15
71970;BME280;59838;52.152;5.436;2023-05-19T06:27:24;102847.44;;;17.00;58.40
71970;BME280;59838;52.152;5.436;2023-05-19T06:29:51;102844.56;;;16.64;59.44
71970;BME280;59838;52.152;5.436;2023-05-19T06:32:17;102847.78;;;16.03;60.80
71970;BME280;59838;52.152;5.436;2023-05-19T06:34:44;102847.53;;;16.61;59.28
71970;BME280;59838;52.152;5.436;2023-05-19T06:37:10;102840.47;;;16.93;57.58
71970;BME280;59838;52.152;5.436;2023-05-19T06:39:40;102839.78;;;17.67;58.08
71970;BME280;59838;52.152;5.436;2023-05-19T06:42:06;102840.22;;;17.41;56.57
71970;BME280;59838;52.152;5.436;2023-05-19T06:44:32;102837.91;;;17.23;58.20
71970;BME280;59838;52.152;5.436;2023-05-19T06:46:59;102831.72;;;17.39;56.47
71970;BME280;59838;52.152;5.436;2023-05-19T06:49:25;102843.00;;;17.24;57.03
71970;BME280;59838;52.152;5.436;2023-05-19T06:51:54;102835.28;;;17.23;58.60
71970;BME280;59838;52.152;5.436;2023-05-19T06:54:21;102839.69;;;17.75;56.44
71970;BME280;59838;52.152;5.436;2023-05-19T06:56:47;102842.69;;;17.87;56.47
71970;BME280;59838;52.152;5.436;2023-05-19T06:59:14;102841.78;;;17.65;54.62
71970;BME280;59838;52.152;5.436;2023-05-19T07:01:41;102841.25;;;17.54;57.63
71970;BME280;59838;52.152;5.436;2023-05-19T07:04:08;102847.66;;;17.67;54.96
71970;BME280;59838;52.152;5.436;2023-05-19T07:06:34;102838.34;;;17.64;55.39
71970;BME280;59838;52.152;5.436;2023-05-19T07:09:01;102846.50;;;17.69;56.17
71970;BME280;59838;52.152;5.436;2023-05-19T07:11:30;102843.59;;;17.64;55.16
71970;BME280;59838;52.152;5.436;2023-05-19T07:13:57;102843.72;;;17.33;56.94
71970;BME280;59838;52.152;5.436;2023-05-19T07:16:23;102841.50;;;17.45;56.09
71970;BME280;59838;52.152;5.436;2023-05-19T07:18:50;102841.97;;;16.87;57.97
71970;BME280;59838;52.152;5.436;2023-05-19T07:21:17;102839.84;;;16.28;58.54
71970;BME280;59838;52.152;5.436;2023-05-19T07:23:43;102833.59;;;16.29;58.16
71970;BME280;59838;52.152;5.436;2023-05-19T07:26:10;102839.69;;;16.30;59.82
71970;BME280;59838;52.152;5.436;2023-05-19T07:28:36;102834.56;;;16.36;59.11
71970;BME280;59838;52.152;5.436;2023-05-19T07:31:06;102832.13;;;16.81;57.64
71970;BME280;59838;52.152;5.436;2023-05-19T07:33:33;102836.59;;;17.27;55.73
71970;BME280;59838;52.152;5.436;2023-05-19T07:36:00;102839.16;;;17.50;55.98
71970;BME280;59838;52.152;5.436;2023-05-19T07:38:26;102842.06;;;17.85;56.34
71970;BME280;59838;52.152;5.436;2023-05-19T07:40:54;102839.56;;;17.92;53.92
71970;BME280;59838;52.152;5.436;2023-05-19T07:43:20;102840.88;;;18.17;53.15
71970;BME280;59838;52.152;5.436;2023-05-19T07:45:47;102835.53;;;18.11;53.34
71970;BME280;59838;52.152;5.436;2023-05-19T07:48:13;102835.13;;;17.92;53.31
71970;BME280;59838;52.152;5.436;2023-05-19T07:50:40;102837.16;;;17.67;52.77
71970;BME280;59838;52.152;5.436;2023-05-19T07:53:07;102837.47;;;17.19;56.32
71970;BME280;59838;52.152;5.436;2023-05-19T07:55:33;102830.53;;;17.03;54.96
71970;BME280;59838;52.152;5.436;2023-05-19T07:58:00;102827.88;;;17.41;54.73
71970;BME280;59838;52.152;5.436;2023-05-19T08:00:26;102831.63;;;17.62;54.36
71970;BME280;59838;52.152;5.436;2023-05-19T08:02:53;102828.19;;;17.08;51.82
71970;BME280;59838;52.152;5.436;2023-05-19T08:05:22;102824.44;;;17.41;51.92
71970;BME280;59838;52.152;5.436;2023-05-19T08:07:48;102823.03;;;17.53;48.49
71970;BME280;59838;52.152;5.436;2023-05-19T08:10:15;102809.34;;;17.05;49.50
71970;BME280;59838;52.152;5.436;2023-05-19T08:12:42;102819.78;;;17.13;50.24
71970;BME280;59838;52.152;5.436;2023-05-19T08:15:09;102814.72;;;17.11;49.14
71970;BME280;59838;52.152;5.436;2023-05-19T08:17:37;102809.03;;;17.23;48.84
71970;BME280;59838;52.152;5.436;2023-05-19T08:20:04;102801.81;;;17.40;50.89
71970;BME280;59838;52.152;5.436;2023-05-19T08:22:33;102811.72;;;17.14;47.00
71970;BME280;59838;52.152;5.436;2023-05-19T08:25:00;102804.38;;;17.10;49.57
71970;BME280;59838;52.152;5.436;2023-05-19T08:27:26;102803.28;;;17.04;51.06
71970;BME280;59838;52.152;5.436;2023-05-19T08:29:53;102799.94;;;17.10;49.06
71970;BME280;59838;52.152;5.436;2023-05-19T08:32:20;102804.00;;;16.98;49.33
71970;BME280;59838;52.152;5.436;2023-05-19T08:34:47;102790.03;;;16.97;49.58
71970;BME280;59838;52.152;5.436;2023-05-19T08:37:14;102791.97;;;17.04;52.93
71970;BME280;59838;52.152;5.436;2023-05-19T08:39:40;102793.31;;;16.99;49.12
71970;BME280;59838;52.152;5.436;2023-05-19T08:42:07;102789.69;;;17.00;51.41
71970;BME280;59838;52.152;5.436;2023-05-19T08:44:36;102792.03;;;16.72;49.53
71970;BME280;59838;52.152;5.436;2023-05-19T08:47:03;102783.44;;;16.78;48.21
71970;BME280;59838;52.152;5.436;2023-05-19T08:49:46;102779.34;;;16.99;47.81
71970;BME280;59838;52.152;5.436;2023-05-19T08:52:26;102789.28;;;16.89;47.59
71970;BME280;59838;52.152;5.436;2023-05-19T08:55:08;102772.75;;;16.88;47.28
71970;BME280;59838;52.152;5.436;2023-05-19T08:57:39;102775.41;;;17.18;48.96
71970;BME280;59838;52.152;5.436;2023-05-19T09:00:06;102774.00;;;17.30;47.64
71970;BME280;59838;52.152;5.436;2023-05-19T09:02:40;102769.72;;;17.44;48.38
71970;BME280;59838;52.152;5.436;2023-05-19T09:05:26;102769.53;;;17.31;45.49
71970;BME280;59838;52.152;5.436;2023-05-19T09:07:53;102769.00;;;17.35;46.30
71970;BME280;59838;52.152;5.436;2023-05-19T09:10:20;102766.03;;;17.24;47.00
71970;BME280;59838;52.152;5.436;2023-05-19T09:12:47;102763.34;;;17.09;48.38
71970;BME280;59838;52.152;5.436;2023-05-19T09:15:16;102769.88;;;16.98;47.78
71970;BME280;59838;52.152;5.436;2023-05-19T09:17:45;102760.53;;;16.72;47.09
71970;BME280;59838;52.152;5.436;2023-05-19T09:20:13;102763.69;;;16.68;48.34
71970;BME280;59838;52.152;5.436;2023-05-19T09:22:43;102761.16;;;16.74;49.45
71970;BME280;59838;52.152;5.436;2023-05-19T09:25:21;102765.31;;;16.92;48.17
71970;BME280;59838;52.152;5.436;2023-05-19T09:27:48;102755.69;;;17.22;51.42
71970;BME280;59838;52.152;5.436;2023-05-19T09:30:16;102757.59;;;17.28;49.61
71970;BME280;59838;52.152;5.436;2023-05-19T09:32:43;102760.00;;;17.15;46.63
71970;BME280;59838;52.152;5.436;2023-05-19T09:35:11;102759.31;;;17.36;46.92
71970;BME280;59838;52.152;5.436;2023-05-19T09:37:39;102750.88;;;17.55;46.41
71970;BME280;59838;52.152;5.436;2023-05-19T09:40:09;102756.59;;;17.59;47.65
71970;BME280;59838;52.152;5.436;2023-05-19T09:42:40;102759.13;;;17.82;50.33
71970;BME280;59838;52.152;5.436;2023-05-19T09:45:07;102761.13;;;17.95;46.27
71970;BME280;59838;52.152;5.436;2023-05-19T09:47:38;102761.31;;;17.79;47.00
71970;BME280;59838;52.152;5.436;2023-05-19T09:50:10;102758.22;;;17.90;48.53
71970;BME280;59838;52.152;5.436;2023-05-19T09:52:37;102756.75;;;18.02;44.74
71970;BME280;59838;52.152;5.436;2023-05-19T09:55:08;102752.31;;;17.88;45.78
71970;BME280;59838;52.152;5.436;2023-05-19T09:57:35;102748.16;;;17.64;44.81
71970;BME280;59838;52.152;5.436;2023-05-19T10:00:07;102751.31;;;17.14;46.46
71970;BME280;59838;52.152;5.436;2023-05-19T10:02:40;102754.63;;;16.93;46.41
71970;BME280;59838;52.152;5.436;2023-05-19T10:05:18;102744.41;;;16.98;45.35
71970;BME280;59838;52.152;5.436;2023-05-19T10:07:46;102752.28;;;16.98;45.07
71970;BME280;59838;52.152;5.436;2023-05-19T10:10:15;102746.78;;;17.08;47.63
71970;BME280;59838;52.152;5.436;2023-05-19T10:12:42;102751.34;;;17.29;46.55
71970;BME280;59838;52.152;5.436;2023-05-19T10:15:10;102740.09;;;17.65;47.90
71970;BME280;59838;52.152;5.436;2023-05-19T10:17:38;102743.09;;;17.77;47.22
71970;BME280;59838;52.152;5.436;2023-05-19T10:20:07;102739.47;;;17.63;46.27
71970;BME280;59838;52.152;5.436;2023-05-19T10:22:34;102740.00;;;17.59;47.76
71970;BME280;59838;52.152;5.436;2023-05-19T10:25:01;102736.09;;;17.69;46.44
71970;BME280;59838;52.152;5.436;2023-05-19T10:27:28;102729.94;;;17.62;46.70
71970;BME280;59838;52.152;5.436;2023-05-19T10:29:58;102733.59;;;17.61;47.28
71970;BME280;59838;52.152;5.436;2023-05-19T10:32:28;102730.13;;;17.76;47.17
71970;BME280;59838;52.152;5.436;2023-05-19T10:35:08;102727.66;;;17.89;49.33
71970;BME280;59838;52.152;5.436;2023-05-19T10:37:41;102723.16;;;18.19;48.90
71970;BME280;59838;52.152;5.436;2023-05-19T10:40:32;102715.88;;;18.21;44.40
71970;BME280;59838;52.152;5.436;2023-05-19T10:43:20;102723.09;;;18.13;46.56
71970;BME280;59838;52.152;5.436;2023-05-19T10:45:52;102718.22;;;17.95;46.59
71970;BME280;59838;52.152;5.436;2023-05-19T10:48:20;102714.66;;;18.02;48.89
71970;BME280;59838;52.152;5.436;2023-05-19T10:50:53;102717.78;;;17.91;44.97
71970;BME280;59838;52.152;5.436;2023-05-19T10:53:20;102717.66;;;17.84;46.09
71970;BME280;59838;52.152;5.436;2023-05-19T10:55:53;102732.56;;;17.77;45.27
71970;BME280;59838;52.152;5.436;2023-05-19T11:01:14;102721.25;;;17.92;48.08
71970;BME280;59838;52.152;5.436;2023-05-19T11:03:52;102714.59;;;17.96;48.37
71970;BME280;59838;52.152;5.436;2023-05-19T11:06:32;102714.03;;;18.22;47.56
71970;BME280;59838;52.152;5.436;2023-05-19T11:11:47;102703.59;;;18.28;45.94
71970;BME280;59838;52.152;5.436;2023-05-19T11:14:16;102701.06;;;18.63;45.64
71970;BME280;59838;52.152;5.436;2023-05-19T11:16:46;102707.47;;;18.54;44.87
71970;BME280;59838;52.152;5.436;2023-05-19T11:19:37;102703.56;;;18.72;46.33
71970;BME280;59838;52.152;5.436;2023-05-19T11:22:08;102695.31;;;18.81;45.18
71970;BME280;59838;52.152;5.436;2023-05-19T11:24:44;102683.28;;;18.72;43.14
71970;BME280;59838;52.152;5.436;2023-05-19T11:27:25;102690.81;;;18.75;44.41
71970;BME280;59838;52.152;5.436;2023-05-19T11:29:57;102688.88;;;18.62;42.19
71970;BME280;59838;52.152;5.436;2023-05-19T11:32:29;102691.97;;;18.66;41.26
71970;BME280;59838;52.152;5.436;2023-05-19T11:34:56;102694.16;;;18.62;44.82
71970;BME280;59838;52.152;5.436;2023-05-19T11:37:23;102679.09;;;18.78;42.49
71970;BME280;59838;52.152;5.436;2023-05-19T11:39:51;102688.19;;;18.75;44.59
71970;BME280;59838;52.152;5.436;2023-05-19T11:42:18;102687.22;;;18.83;41.05
71970;BME280;59838;52.152;5.436;2023-05-19T11:44:45;102677.88;;;18.80;43.62
71970;BME280;59838;52.152;5.436;2023-05-19T11:47:13;102684.66;;;18.90;42.91
71970;BME280;59838;52.152;5.436;2023-05-19T11:49:43;102667.25;;;18.89;39.36
71970;BME280;59838;52.152;5.436;2023-05-19T11:52:11;102667.94;;;19.04;43.41
71970;BME280;59838;52.152;5.436;2023-05-19T11:54:37;102678.31;;;19.12;42.22
71970;BME280;59838;52.152;5.436;2023-05-19T11:57:08;102673.44;;;19.09;41.45
71970;BME280;59838;52.152;5.436;2023-05-19T11:59:36;102655.72;;;18.96;39.85
71970;BME280;59838;52.152;5.436;2023-05-19T12:02:18;102664.94;;;19.14;39.64
71970;BME280;59838;52.152;5.436;2023-05-19T12:04:48;102669.72;;;18.97;40.76
71970;BME280;59838;52.152;5.436;2023-05-19T12:07:16;102677.66;;;19.04;43.11
71970;BME280;59838;52.152;5.436;2023-05-19T12:09:45;102673.91;;;18.85;39.57
71970;BME280;59838;52.152;5.436;2023-05-19T12:12:15;102666.06;;;18.98;42.72
71970;BME280;59838;52.152;5.436;2023-05-19T12:14:43;102669.97;;;18.80;45.04
71970;BME280;59838;52.152;5.436;2023-05-19T12:17:17;102657.41;;;18.76;46.91
71970;BME280;59838;52.152;5.436;2023-05-19T12:19:46;102671.88;;;18.87;46.70
71970;BME280;59838;52.152;5.436;2023-05-19T12:22:14;102673.22;;;18.76;46.78
71970;BME280;59838;52.152;5.436;2023-05-19T12:24:42;102668.84;;;18.61;48.36
71970;BME280;59838;52.152;5.436;2023-05-19T12:27:11;102670.06;;;18.87;47.36
71970;BME280;59838;52.152;5.436;2023-05-19T12:29:39;102661.69;;;19.12;43.46
71970;BME280;59838;52.152;5.436;2023-05-19T12:32:06;102664.47;;;18.75;44.80
71970;BME280;59838;52.152;5.436;2023-05-19T12:34:37;102657.69;;;18.59;48.39
71970;BME280;59838;52.152;5.436;2023-05-19T12:37:04;102652.09;;;18.69;44.73
71970;BME280;59838;52.152;5.436;2023-05-19T12:39:31;102657.03;;;18.51;46.73
71970;BME280;59838;52.152;5.436;2023-05-19T12:42:16;102644.28;;;18.54;45.67
71970;BME280;59838;52.152;5.436;2023-05-19T12:44:45;102644.13;;;18.62;47.58
71970;BME280;59838;52.152;5.436;2023-05-19T12:47:16;102641.91;;;18.88;45.46
71970;BME280;59838;52.152;5.436;2023-05-19T12:52:26;102644.81;;;18.71;45.70
71970;BME280;59838;52.152;5.436;2023-05-19T12:55:02;102638.84;;;18.84;45.29
71970;BME280;59838;52.152;5.436;2023-05-19T12:57:37;102637.03;;;19.20;45.18
71970;BME280;59838;52.152;5.436;2023-05-19T13:00:06;102631.00;;;19.32;46.36
71970;BME280;59838;52.152;5.436;2023-05-19T13:02:53;102631.13;;;19.24;43.33
71970;BME280;59838;52.152;5.436;2023-05-19T13:05:21;102631.38;;;19.23;44.80
71970;BME280;59838;52.152;5.436;2023-05-19T13:10:25;102626.50;;;19.26;43.11
71970;BME280;59838;52.152;5.436;2023-05-19T13:12:57;102624.78;;;19.53;42.70
71970;BME280;59838;52.152;5.436;2023-05-19T13:15:25;102627.63;;;19.65;45.37
71970;BME280;59838;52.152;5.436;2023-05-19T13:17:52;102622.94;;;19.54;41.69
71970;BME280;59838;52.152;5.436;2023-05-19T13:20:20;102629.78;;;19.42;45.94
71970;BME280;59838;52.152;5.436;2023-05-19T13:22:47;102626.34;;;19.34;43.35
71970;BME280;59838;52.152;5.436;2023-05-19T13:25:15;102631.47;;;19.08;41.54